Time;durP1;ratioP1;P1;durP2;ratioP2;P2;SDS_P1;SDS_P2;PMS_P1;PMS_P2;Temp;Humidity;BMP_temperature;BMP_pressure;BME280_temperature;BME280_humidity;BME280_pressure;Samples;Min_cycle;Max_cycle;Signal;HPM_P1;HPM_P2
2021/06/03 00:00:40;;;;;;;207.62;47.58;;;;;;;12.48;100.00;99491.42;1706627;84;21297;-79
2021/06/03 00:03:49;;;;;;;184.90;44.95;;;;;;;12.46;100.00;99499.84;1706361;84;21856;-79
2021/06/03 00:06:55;;;;;;;309.00;56.60;;;;;;;12.45;100.00;99492.67;1704976;83;21749;-79
2021/06/03 00:10:01;;;;;;;197.95;57.53;;;;;;;12.46;100.00;99494.36;1706556;84;21965;-79
2021/06/03 00:13:07;;;;;;;207.45;41.30;;;;;;;12.46;100.00;99485.28;1712250;83;21247;-79
2021/06/03 00:16:16;;;;;;;231.90;49.75;;;;;;;12.48;100.00;99483.20;1722626;83;21366;-79
2021/06/03 00:19:23;;;;;;;497.48;70.70;;;;;;;12.45;100.00;99487.19;1722867;83;21306;-79
2021/06/03 00:22:30;;;;;;;272.35;60.20;;;;;;;12.44;100.00;99463.56;1721161;83;21731;-79
2021/06/03 00:25:36;;;;;;;269.55;48.92;;;;;;;12.42;100.00;99483.52;1722494;83;21322;-79
2021/06/03 00:28:41;;;;;;;344.95;81.45;;;;;;;12.39;100.00;99477.59;1721027;83;21239;-79
2021/06/03 00:31:47;;;;;;;677.90;122.15;;;;;;;12.35;100.00;99484.01;1722192;83;21307;-79
2021/06/03 00:34:53;;;;;;;243.73;58.10;;;;;;;12.30;100.00;99496.13;1722626;83;21306;-79
2021/06/03 00:37:59;;;;;;;264.48;56.95;;;;;;;12.23;100.00;99479.67;1722422;83;21244;-78
2021/06/03 00:41:06;;;;;;;300.50;66.20;;;;;;;12.21;100.00;99483.66;1723021;83;21719;-79
2021/06/03 00:44:12;;;;;;;187.47;67.32;;;;;;;12.17;100.00;99485.13;1722504;83;21312;-79
2021/06/03 00:47:18;;;;;;;710.23;147.30;;;;;;;12.12;100.00;99493.13;1721735;83;21342;-79
2021/06/03 00:50:30;;;;;;;335.88;75.90;;;;;;;12.05;100.00;99482.15;1722525;83;21310;-78
2021/06/03 00:53:36;;;;;;;334.65;69.37;;;;;;;12.00;100.00;99482.77;1721204;83;21283;-79
2021/06/03 00:56:41;;;;;;;308.13;57.80;;;;;;;11.98;100.00;99478.52;1705186;83;21331;-79
2021/06/03 00:59:48;;;;;;;230.83;56.30;;;;;;;11.96;100.00;99469.68;1721172;83;21219;-78
2021/06/03 01:02:55;;;;;;;157.82;47.80;;;;;;;11.94;100.00;99469.86;1721624;83;21329;-78
2021/06/03 01:06:07;;;;;;;314.30;68.78;;;;;;;11.92;100.00;99475.25;1722569;83;21346;-79
2021/06/03 01:09:29;;;;;;;246.07;53.58;;;;;;;11.92;100.00;99476.09;1722501;83;21314;-79
2021/06/03 01:12:45;;;;;;;;;;;;;;;11.90;100.00;99464.50;1724697;83;21897;-79
2021/06/03 01:15:53;;;;;;;225.65;51.13;;;;;;;11.91;100.00;99464.81;1727230;83;20647;-79
2021/06/03 01:19:01;;;;;;;188.70;46.17;;;;;;;11.91;100.00;99463.97;1727795;83;21813;-79
2021/06/03 01:22:16;;;;;;;277.95;57.50;;;;;;;11.94;100.00;99455.32;1726063;83;21191;-79
2021/06/03 01:25:22;;;;;;;256.17;37.75;;;;;;;11.97;100.00;99453.02;1726124;83;21302;-79
2021/06/03 01:28:28;;;;;;;242.68;53.78;;;;;;;11.98;100.00;99452.48;1726140;83;21291;-78
2021/06/03 01:31:34;;;;;;;128.25;36.60;;;;;;;11.98;100.00;99447.85;1725873;83;21208;-79
2021/06/03 01:34:42;;;;;;;168.07;27.87;;;;;;;12.01;100.00;99450.72;1725976;83;21792;-78
2021/06/03 01:37:48;;;;;;;268.42;55.55;;;;;;;11.98;100.00;99456.08;1727451;83;22653;-79
2021/06/03 01:40:55;;;;;;;230.75;42.88;;;;;;;11.98;100.00;99445.64;1727391;83;21746;-79
2021/06/03 01:44:02;;;;;;;311.73;72.00;;;;;;;11.95;100.00;99442.80;1725770;83;21215;-78
2021/06/03 01:47:12;;;;;;;365.02;90.15;;;;;;;11.94;100.00;99440.25;1726662;83;21805;-79
2021/06/03 01:50:19;;;;;;;250.20;47.30;;;;;;;11.88;100.00;99436.44;1725956;83;21782;-79
2021/06/03 01:53:28;;;;;;;417.98;79.07;;;;;;;11.86;100.00;99434.45;1726735;83;21248;-79
2021/06/03 01:56:33;;;;;;;327.02;79.77;;;;;;;11.82;100.00;99440.02;1727511;83;21881;-79
2021/06/03 01:59:41;;;;;;;163.87;51.28;;;;;;;11.80;100.00;99437.11;1727049;83;21873;-79
2021/06/03 02:02:47;;;;;;;288.80;68.25;;;;;;;11.74;100.00;99428.67;1727590;83;21314;-79
2021/06/03 02:06:00;;;;;;;322.00;85.50;;;;;;;11.70;100.00;99417.80;1726007;83;21195;-79
2021/06/03 02:09:05;;;;;;;298.60;89.47;;;;;;;11.68;100.00;99419.91;1707147;84;21949;-79
2021/06/03 02:12:16;;;;;;;308.02;45.08;;;;;;;11.67;100.00;99421.50;1705521;84;21214;-79
2021/06/03 02:15:22;;;;;;;413.68;70.83;;;;;;;11.65;100.00;99411.25;1705722;84;21254;-79
2021/06/03 02:18:37;;;;;;;296.60;63.02;;;;;;;11.67;100.00;99418.76;1705594;84;21394;-79
2021/06/03 02:21:44;;;;;;;223.68;55.25;;;;;;;11.65;100.00;99415.36;1705798;83;21352;-80
2021/06/03 02:24:50;;;;;;;232.05;59.15;;;;;;;11.66;100.00;99419.78;1705439;84;21230;-79
2021/06/03 02:27:56;;;;;;;332.15;85.38;;;;;;;11.64;100.00;99409.04;1706900;84;21848;-80
2021/06/03 02:31:05;;;;;;;662.85;105.45;;;;;;;11.63;100.00;99410.62;1705636;84;21222;-79
2021/06/03 02:34:11;;;;;;;405.37;102.45;;;;;;;11.59;100.00;99402.49;1706208;84;21357;-79
2021/06/03 02:37:12;;;;;;;363.12;102.95;;;;;;;11.54;100.00;99401.73;1706514;83;21349;-79
2021/06/03 02:40:09;;;;;;;477.93;94.70;;;;;;;11.50;100.00;99393.08;1706948;84;21325;-79
2021/06/03 02:43:15;;;;;;;391.05;89.55;;;;;;;11.46;100.00;99398.64;1706954;84;21219;-79
2021/06/03 02:46:23;;;;;;;379.10;109.27;;;;;;;11.42;100.00;99398.72;1706288;82;21794;-79
2021/06/03 02:49:30;;;;;;;333.45;97.37;;;;;;;11.39;100.00;99397.78;1704996;84;21664;-79
2021/06/03 02:52:35;;;;;;;286.02;83.35;;;;;;;11.36;100.00;99396.81;1706489;84;21254;-79
2021/06/03 02:55:40;;;;;;;547.60;111.05;;;;;;;11.34;100.00;99395.31;1706300;84;21330;-79
2021/06/03 02:58:46;;;;;;;416.50;99.20;;;;;;;11.32;100.00;99402.89;1672175;86;21262;-79
2021/06/03 03:01:52;;;;;;;405.35;98.12;;;;;;;11.29;100.00;99403.29;1672205;86;21584;-79
2021/06/03 03:04:59;;;;;;;430.43;102.58;;;;;;;11.29;100.00;99406.02;1671536;86;21337;-79
2021/06/03 03:08:06;;;;;;;226.47;63.68;;;;;;;11.28;100.00;99409.82;1671737;85;21346;-78
2021/06/03 03:11:13;;;;;;;338.20;70.50;;;;;;;11.26;100.00;99404.56;1672256;86;21335;-79
2021/06/03 03:14:20;;;;;;;324.95;93.25;;;;;;;11.26;100.00;99399.08;1643135;87;21373;-79
2021/06/03 03:17:26;;;;;;;438.72;77.82;;;;;;;11.24;100.00;99406.63;1670961;86;21207;-78
2021/06/03 03:20:34;;;;;;;308.98;76.47;;;;;;;11.25;100.00;99409.72;1672310;86;21925;-79
2021/06/03 03:23:41;;;;;;;347.60;81.02;;;;;;;11.25;100.00;99409.19;1642891;87;21397;-78
2021/06/03 03:26:48;;;;;;;280.95;68.42;;;;;;;11.24;100.00;99408.88;1669608;86;21882;-79
2021/06/03 03:29:52;;;;;;;331.85;70.52;;;;;;;11.25;100.00;99397.40;1672297;86;21295;-79
2021/06/03 03:32:58;;;;;;;627.35;155.82;;;;;;;11.24;100.00;99388.84;1672351;86;21880;-78
2021/06/03 03:36:05;;;;;;;279.93;75.60;;;;;;;11.26;100.00;99390.87;1670946;86;21317;-79
2021/06/03 03:39:14;;;;;;;281.25;78.33;;;;;;;11.25;100.00;99384.55;1642707;87;21329;-79
2021/06/03 03:42:20;;;;;;;308.60;88.22;;;;;;;11.23;100.00;99396.21;1672106;86;21306;-79
2021/06/03 03:45:28;;;;;;;432.43;77.20;;;;;;;11.26;100.00;99403.19;1671450;86;21267;-80
2021/06/03 03:48:33;;;;;;;366.48;104.07;;;;;;;11.26;100.00;99403.19;1672346;86;21865;-80
2021/06/03 03:51:38;;;;;;;462.05;101.70;;;;;;;11.25;100.00;99398.77;1671008;86;21238;-79
2021/06/03 03:54:46;;;;;;;304.32;76.65;;;;;;;11.26;100.00;99399.92;1670905;86;21396;-80
2021/06/03 03:57:52;;;;;;;218.40;70.52;;;;;;;11.25;100.00;99407.82;1670802;86;22067;-79
2021/06/03 04:01:00;;;;;;;357.18;88.52;;;;;;;11.25;100.00;99396.88;1673109;86;22303;-79
2021/06/03 04:04:05;;;;;;;250.95;74.12;;;;;;;11.25;100.00;99402.34;1655904;86;21373;-80
2021/06/03 04:07:12;;;;;;;221.53;71.70;;;;;;;11.25;100.00;99406.45;1668268;85;21195;-80
2021/06/03 04:10:20;;;;;;;305.87;133.97;;;;;;;11.28;100.00;99417.50;1631325;86;21327;-79
2021/06/03 04:13:27;;;;;;;261.98;67.17;;;;;;;11.26;100.00;99419.61;1670276;86;21315;-79
2021/06/03 04:16:32;;;;;;;325.32;113.15;;;;;;;11.25;100.00;99409.72;1700599;83;21319;-79
2021/06/03 04:19:40;;;;;;;313.98;90.50;;;;;;;11.24;100.00;99421.19;1700723;84;21265;-79
2021/06/03 04:22:44;;;;;;;223.97;68.45;;;;;;;11.25;100.00;99416.03;1704917;84;21211;-79
2021/06/03 04:25:53;;;;;;;278.52;72.72;;;;;;;11.25;100.00;99413.82;1695790;84;21347;-79
2021/06/03 04:28:59;;;;;;;318.30;67.12;;;;;;;11.26;100.00;99404.03;1695685;84;21784;-80
2021/06/03 04:32:07;;;;;;;299.05;73.37;;;;;;;11.27;100.00;99406.23;1688948;83;21324;-80
2021/06/03 04:35:13;;;;;;;280.30;80.72;;;;;;;11.30;100.00;99399.53;1700793;84;21325;-80
2021/06/03 04:38:19;;;;;;;356.25;82.40;;;;;;;11.32;100.00;99401.00;1704928;84;21159;-80
2021/06/03 04:41:26;;;;;;;223.07;53.63;;;;;;;11.35;100.00;99406.08;1703428;84;21286;-80
2021/06/03 04:44:32;;;;;;;235.97;61.00;;;;;;;11.38;100.00;99403.44;1701448;84;21293;-80
2021/06/03 04:47:38;;;;;;;356.27;66.20;;;;;;;11.39;100.00;99401.89;1699187;84;21211;-80
2021/06/03 04:50:46;;;;;;;324.00;86.78;;;;;;;11.43;100.00;99405.91;1697581;84;21824;-79
2021/06/03 04:53:50;;;;;;;195.47;42.98;;;;;;;11.48;100.00;99398.45;1702591;83;21357;-80
2021/06/03 04:56:56;;;;;;;350.65;66.05;;;;;;;11.51;100.00;99395.29;1703151;83;21223;-80
2021/06/03 05:00:01;;;;;;;360.82;73.50;;;;;;;11.55;100.00;99398.47;1702073;83;21228;-80
2021/06/03 05:03:07;;;;;;;331.57;74.07;;;;;;;11.58;100.00;99402.18;1697794;83;21325;-80
2021/06/03 05:06:13;;;;;;;273.30;68.90;;;;;;;11.61;100.00;99409.44;1701298;83;22018;-80
2021/06/03 05:09:19;;;;;;;273.18;58.45;;;;;;;11.64;100.00;99406.30;1702392;84;21325;-79
2021/06/03 05:12:25;;;;;;;278.83;57.58;;;;;;;11.68;100.00;99405.38;1706542;82;21298;-79
2021/06/03 05:15:32;;;;;;;253.15;65.10;;;;;;;11.71;100.00;99413.16;1704004;84;21916;-78
2021/06/03 05:18:38;;;;;;;445.60;86.72;;;;;;;11.72;100.00;99414.87;1700711;84;21334;-80
2021/06/03 05:21:46;;;;;;;239.05;64.37;;;;;;;11.74;100.00;99405.91;1701763;84;21734;-81
2021/06/03 05:24:51;;;;;;;223.03;62.03;;;;;;;11.76;100.00;99405.17;1700420;84;21783;-81
2021/06/03 05:27:56;;;;;;;233.50;51.90;;;;;;;11.79;100.00;99403.39;1703309;84;21309;-81
2021/06/03 05:31:02;;;;;;;320.20;61.45;;;;;;;11.83;100.00;99395.65;1703179;82;21326;-80
2021/06/03 05:34:13;;;;;;;263.43;62.25;;;;;;;11.84;100.00;99394.06;1676530;85;21917;-80
2021/06/03 05:37:18;;;;;;;341.63;57.90;;;;;;;11.88;100.00;99393.97;1675345;85;21214;-80
2021/06/03 05:40:25;;;;;;;208.10;68.00;;;;;;;11.94;100.00;99391.77;1702524;82;21227;-79
2021/06/03 05:43:31;;;;;;;313.37;78.25;;;;;;;11.99;100.00;99394.72;1705487;84;21296;-79
2021/06/03 05:46:37;;;;;;;193.45;60.45;;;;;;;12.05;100.00;99396.34;1704535;82;21329;-79
2021/06/03 05:49:43;;;;;;;254.38;61.58;;;;;;;12.11;100.00;99396.34;1699416;83;21219;-79
2021/06/03 05:52:50;;;;;;;249.85;62.90;;;;;;;12.16;100.00;99403.94;1703757;84;21313;-79
2021/06/03 05:55:56;;;;;;;228.52;51.53;;;;;;;12.24;100.00;99399.64;1710892;82;21329;-79
2021/06/03 05:59:01;;;;;;;242.90;53.50;;;;;;;12.33;100.00;99401.62;1704790;84;21758;-78
2021/06/03 06:02:08;;;;;;;297.98;47.70;;;;;;;12.40;100.00;99411.55;1699275;84;21275;-79
2021/06/03 06:08:39;;;;;;;268.52;68.80;;;;;;;12.48;100.00;99420.95;1697256;82;21242;-79
2021/06/03 06:11:45;;;;;;;480.73;89.90;;;;;;;12.49;100.00;99424.00;1696611;84;21879;-79
2021/06/03 06:14:51;;;;;;;353.12;61.58;;;;;;;12.46;100.00;99423.05;1698617;84;21237;-79
2021/06/03 06:17:58;;;;;;;289.08;63.75;;;;;;;12.45;100.00;99424.11;1700780;82;21746;-78
2021/06/03 06:21:04;;;;;;;197.95;57.70;;;;;;;12.45;100.00;99425.48;1700823;82;21341;-78
2021/06/03 06:24:11;;;;;;;196.87;42.03;;;;;;;12.46;100.00;99423.05;1698959;82;21234;-79
2021/06/03 06:27:17;;;;;;;261.73;48.70;;;;;;;12.51;100.00;99430.14;1701084;83;21327;-83
2021/06/03 06:30:23;;;;;;;264.05;50.43;;;;;;;12.58;100.00;99425.18;1679173;84;21333;-81
2021/06/03 06:33:29;;;;;;;256.47;44.23;;;;;;;12.66;100.00;99411.26;1700336;84;21263;-81
2021/06/03 06:36:35;;;;;;;253.75;52.17;;;;;;;12.74;100.00;99421.99;1677737;84;21321;-79
2021/06/03 06:39:41;;;;;;;222.48;54.73;;;;;;;12.76;100.00;99421.27;1689491;84;21319;-78
2021/06/03 06:42:54;;;;;;;172.05;35.50;;;;;;;12.80;100.00;99423.91;1700598;84;21327;-78
2021/06/03 06:46:00;;;;;;;338.60;58.80;;;;;;;12.84;100.00;99426.52;1698858;84;21382;-78
2021/06/03 06:49:07;;;;;;;177.62;42.88;;;;;;;12.88;100.00;99433.81;1701036;84;21298;-78
2021/06/03 06:52:13;;;;;;;217.35;41.00;;;;;;;12.88;100.00;99438.77;1676790;83;21219;-78
2021/06/03 06:55:19;;;;;;;692.83;103.67;;;;;;;12.89;100.00;99441.85;1703089;84;21324;-81
2021/06/03 06:58:24;;;;;;;224.15;41.63;;;;;;;12.92;100.00;99450.17;1697563;84;21390;-80
2021/06/03 07:01:32;;;;;;;117.17;35.30;;;;;;;12.89;100.00;99452.83;1638924;87;22078;-80
2021/06/03 07:04:38;;;;;;;313.50;64.60;;;;;;;12.93;100.00;99448.58;1642331;86;21843;-78
2021/06/03 07:07:44;;;;;;;196.22;40.65;;;;;;;12.95;100.00;99446.48;1639274;86;22770;-79
2021/06/03 07:10:53;;;;;;;256.55;51.08;;;;;;;12.97;100.00;99451.75;1635375;87;21374;-79
2021/06/03 07:13:57;;;;;;;155.10;42.20;;;;;;;12.94;100.00;99455.78;1664567;85;21405;-79
2021/06/03 07:17:03;;;;;;;290.82;54.27;;;;;;;12.96;100.00;99459.67;1636142;87;21409;-79
2021/06/03 07:20:12;;;;;;;239.02;52.20;;;;;;;13.00;100.00;99460.94;1635916;86;21931;-79
2021/06/03 07:23:17;;;;;;;186.18;40.63;;;;;;;13.08;100.00;99466.72;1667082;84;21271;-79
2021/06/03 07:26:24;;;;;;;178.10;49.33;;;;;;;13.14;100.00;99472.22;1666756;84;21985;-79
2021/06/03 07:29:29;;;;;;;209.05;47.62;;;;;;;13.22;100.00;99470.67;1645300;85;21366;-78
2021/06/03 07:32:37;;;;;;;230.87;30.82;;;;;;;13.25;100.00;99474.87;1666117;84;21342;-79
2021/06/03 07:35:44;;;;;;;341.40;55.48;;;;;;;13.31;100.00;99472.63;1645087;85;21972;-80
2021/06/03 07:38:51;;;;;;;257.12;40.05;;;;;;;13.42;100.00;99475.27;1644704;86;21440;-79
2021/06/03 07:41:58;;;;;;;191.92;35.28;;;;;;;13.43;100.00;99476.42;1663993;85;21219;-78
2021/06/03 07:45:06;;;;;;;175.40;38.85;;;;;;;13.50;100.00;99474.52;1660793;85;21361;-80
2021/06/03 07:48:14;;;;;;;318.70;33.93;;;;;;;13.57;100.00;99482.73;1633126;85;21956;-79
2021/06/03 07:51:20;;;;;;;253.95;37.45;;;;;;;13.60;100.00;99486.92;1664932;85;21322;-79
2021/06/03 07:54:27;;;;;;;197.98;36.30;;;;;;;13.61;100.00;99488.64;1636160;87;21675;-79
2021/06/03 07:57:33;;;;;;;218.35;55.95;;;;;;;13.59;100.00;99496.23;1667058;85;21369;-78
2021/06/03 08:00:40;;;;;;;211.72;45.98;;;;;;;13.58;100.00;99499.52;1636682;87;22284;-78
2021/06/03 08:03:46;;;;;;;331.60;61.70;;;;;;;13.55;100.00;99499.44;1636653;85;21250;-79
2021/06/03 08:06:52;;;;;;;201.98;36.48;;;;;;;13.49;100.00;99501.64;1662278;84;21297;-79
2021/06/03 08:09:56;;;;;;;288.07;55.90;;;;;;;13.46;100.00;99508.97;1665740;85;21385;-79
2021/06/03 08:13:03;;;;;;;247.65;35.83;;;;;;;13.47;100.00;99510.65;1644026;85;21338;-79
2021/06/03 08:16:10;;;;;;;274.60;44.27;;;;;;;13.48;100.00;99512.33;1643425;86;21328;-79
2021/06/03 08:19:20;;;;;;;218.93;39.33;;;;;;;13.50;100.00;99517.59;1644356;85;21223;-79
2021/06/03 08:22:33;;;;;;;161.20;33.05;;;;;;;13.51;100.00;99521.53;1617074;86;21987;-78
2021/06/03 08:25:44;;;;;;;286.27;39.83;;;;;;;13.61;100.00;99521.08;1636458;86;22174;-78
2021/06/03 08:29:00;;;;;;;158.45;27.10;;;;;;;13.72;100.00;99516.81;1625666;86;21250;-78
2021/06/03 08:32:03;;;;;;;151.30;29.75;;;;;;;13.83;100.00;99520.25;1641383;86;21690;-79
2021/06/03 08:35:14;;;;;;;206.15;35.88;;;;;;;14.04;100.00;99526.85;1644598;87;21347;-79
2021/06/03 08:38:19;;;;;;;103.80;27.60;;;;;;;14.25;100.00;99527.59;1642120;86;21219;-79
2021/06/03 08:41:25;;;;;;;370.45;57.03;;;;;;;14.44;100.00;99518.92;1644290;87;21235;-79
2021/06/03 08:44:31;;;;;;;145.22;28.05;;;;;;;14.80;100.00;99523.81;1641825;87;21377;-78
2021/06/03 08:47:38;;;;;;;110.50;30.70;;;;;;;15.09;100.00;99525.90;1622910;87;21239;-78
2021/06/03 08:50:48;;;;;;;176.53;29.77;;;;;;;15.43;100.00;99526.47;1646529;86;21413;-79
2021/06/03 08:53:55;;;;;;;112.62;30.70;;;;;;;15.81;100.00;99528.22;1645218;86;21696;-79
2021/06/03 08:57:02;;;;;;;127.47;26.70;;;;;;;16.18;99.62;99537.84;1644654;86;21333;-79
2021/06/03 09:00:06;;;;;;;212.60;37.08;;;;;;;16.41;97.54;99528.84;1643180;86;22472;-78
2021/06/03 09:03:12;;;;;;;144.40;28.27;;;;;;;16.65;95.64;99529.23;1652366;85;21454;-77
2021/06/03 09:06:17;;;;;;;196.40;36.77;;;;;;;16.71;93.70;99531.61;1644151;87;21822;-78
2021/06/03 09:09:36;;;;;;;236.20;42.20;;;;;;;16.69;91.84;99538.73;1642555;86;21861;-78
2021/06/03 09:12:41;;;;;;;421.33;64.90;;;;;;;16.38;89.42;99548.64;1642321;87;21223;-79
2021/06/03 09:15:59;;;;;;;644.40;191.40;;;;;;;15.99;89.49;99553.02;1665877;84;21950;-78
2021/06/03 09:19:15;;;;;;;539.25;95.38;;;;;;;15.67;89.53;99557.01;1674317;84;21347;-78
2021/06/03 09:22:27;;;;;;;254.13;57.83;;;;;;;15.33;89.91;99563.31;1698891;84;21252;-80
2021/06/03 09:25:42;;;;;;;345.67;72.53;;;;;;;15.16;91.43;99557.54;1696518;81;62310;-79
2021/06/03 09:28:54;;;;;;;388.27;64.07;;;;;;;15.13;92.09;99562.64;1673423;84;21741;-78
2021/06/03 09:32:00;;;;;;;213.43;45.88;;;;;;;15.11;91.98;99563.41;1637076;86;21719;-79
2021/06/03 09:35:06;;;;;;;466.08;84.45;;;;;;;15.11;93.32;99566.17;1665947;84;21220;-80
2021/06/03 09:38:13;;;;;;;224.90;48.30;;;;;;;15.25;93.74;99575.48;1665773;84;21315;-80
2021/06/03 09:41:18;;;;;;;134.47;30.02;;;;;;;15.28;93.34;99574.16;1670409;84;21283;-79
2021/06/03 09:44:33;;;;;;;252.10;48.52;;;;;;;15.36;93.77;99582.70;1670075;84;21395;-79
2021/06/03 09:47:44;;;;;;;210.53;56.28;;;;;;;15.39;93.02;99580.88;1667293;84;21338;-80
2021/06/03 09:50:54;;;;;;;322.55;60.12;;;;;;;15.44;92.86;99587.40;1667503;84;21961;-79
2021/06/03 09:54:20;;;;;;;267.43;36.45;;;;;;;15.54;92.81;99589.64;1664118;84;21193;-80
2021/06/03 09:57:25;;;;;;;220.10;45.00;;;;;;;15.60;93.55;99588.72;1664445;84;21344;-79
2021/06/03 10:00:30;;;;;;;270.17;59.53;;;;;;;15.69;93.61;99593.45;1668076;84;21241;-79
2021/06/03 10:03:38;;;;;;;398.75;73.37;;;;;;;15.70;92.49;99590.45;1665837;84;21336;-78
2021/06/03 10:06:43;;;;;;;436.00;110.00;;;;;;;15.65;91.68;99594.43;1649738;85;21642;-78
2021/06/03 10:10:03;;;;;;;498.73;102.25;;;;;;;15.59;91.31;99596.16;1653303;84;21261;-79
2021/06/03 10:13:14;;;;;;;388.80;72.80;;;;;;;15.47;91.21;99601.24;1662929;85;21274;-87
2021/06/03 10:16:38;;;;;;;183.35;41.42;;;;;;;15.35;91.56;99605.28;1664938;84;21322;-87
2021/06/03 10:19:45;;;;;;;329.52;73.55;;;;;;;15.40;91.91;99612.33;1660934;84;21862;-85
2021/06/03 10:22:53;;;;;;;636.28;128.38;;;;;;;15.45;91.61;99616.63;1666646;84;21924;-78
2021/06/03 10:26:05;;;;;;;454.45;123.40;;;;;;;15.47;91.66;99619.99;1664590;84;21569;-79
2021/06/03 10:29:12;;;;;;;360.98;99.05;;;;;;;15.45;90.54;99629.03;1650265;85;21263;-80
2021/06/03 10:32:19;;;;;;;472.73;93.40;;;;;;;15.47;90.45;99632.94;1605411;87;21315;-79
2021/06/03 10:35:37;;;;;;;195.72;58.80;;;;;;;15.44;90.16;99642.52;1641362;86;21336;-77
2021/06/03 10:38:42;;;;;;;323.15;80.03;;;;;;;15.41;90.25;99638.81;1654506;85;21194;-79
2021/06/03 10:41:48;;;;;;;405.22;93.72;;;;;;;15.42;90.98;99648.77;1614418;87;21318;-79
2021/06/03 10:44:55;;;;;;;482.23;107.12;;;;;;;15.37;89.79;99651.89;1637565;86;21256;-78
2021/06/03 10:48:01;;;;;;;218.22;51.77;;;;;;;15.29;89.66;99659.88;1642622;86;21252;-78
2021/06/03 10:51:13;;;;;;;435.93;75.03;;;;;;;15.27;90.51;99660.65;1651815;85;21185;-79
2021/06/03 10:54:18;;;;;;;214.45;59.45;;;;;;;15.31;91.20;99668.78;1635196;86;21846;-86
2021/06/03 10:57:25;;;;;;;363.05;73.17;;;;;;;15.44;92.26;99668.69;1613820;87;21211;-87
2021/06/03 11:00:49;;;;;;;283.20;58.40;;;;;;;15.65;93.04;99670.78;1644073;86;21338;-88
2021/06/03 11:04:09;;;;;;;484.70;97.65;;;;;;;15.84;92.13;99676.65;1649783;85;22191;-88
2021/06/03 11:07:12;;;;;;;298.10;67.87;;;;;;;16.02;91.70;99682.20;1649620;85;21786;-88
2021/06/03 11:10:37;;;;;;;275.70;54.05;;;;;;;16.10;89.18;99682.47;1650697;85;21851;-88
2021/06/03 11:13:59;;;;;;;544.75;132.07;;;;;;;16.18;88.82;99690.96;1614901;87;21346;-88
2021/06/03 11:17:06;;;;;;;179.95;37.80;;;;;;;16.34;88.75;99685.70;1639709;86;21193;-88
2021/06/03 11:20:13;;;;;;;204.87;46.10;;;;;;;16.49;89.64;99692.22;1640986;86;21572;-88
2021/06/03 11:23:45;;;;;;;722.58;126.10;;;;;;;16.66;88.67;99689.70;1638536;86;21771;-89
2021/06/03 11:26:55;;;;;;;363.92;66.92;;;;;;;16.80;86.58;99700.92;1637479;86;21644;-89
2021/06/03 11:30:03;;;;;;;235.85;64.27;;;;;;;16.90;85.36;99699.53;1624536;86;21166;-88
2021/06/03 11:33:08;;;;;;;304.60;56.23;;;;;;;16.99;84.21;99698.98;1628748;86;21295;-89
2021/06/03 11:36:36;;;;;;;430.43;72.50;;;;;;;17.08;84.18;99705.03;1616021;87;21200;-89
2021/06/03 11:39:50;;;;;;;636.58;145.02;;;;;;;17.22;83.94;99703.77;1615188;88;21240;-89
2021/06/03 11:43:11;;;;;;;699.45;195.32;;;;;;;17.38;82.86;99703.63;1608196;88;21272;-89
2021/06/03 11:46:16;;;;;;;581.30;127.90;;;;;;;17.38;81.23;99709.16;1626593;87;21810;-87
2021/06/03 11:49:48;;;;;;;484.73;62.45;;;;;;;17.33;80.53;99718.69;1615680;87;21554;-88
2021/06/03 11:53:07;;;;;;;290.15;61.70;;;;;;;17.34;81.93;99714.84;1609033;87;22253;-88
2021/06/03 11:56:21;;;;;;;430.87;76.12;;;;;;;17.42;81.70;99728.34;1590925;90;21886;-87
2021/06/03 11:59:30;;;;;;;335.82;82.57;;;;;;;17.48;81.08;99732.08;1608389;88;21304;-87
2021/06/03 12:02:46;;;;;;;729.50;222.58;;;;;;;17.47;79.40;99731.78;1595634;87;21311;-88
2021/06/03 12:05:55;;;;;;;620.52;101.95;;;;;;;17.51;80.56;99735.23;1601873;87;21378;-88
2021/06/03 12:09:05;;;;;;;245.52;54.58;;;;;;;17.56;78.65;99735.91;1616258;88;21201;-88
2021/06/03 12:12:15;;;;;;;251.58;55.70;;;;;;;17.65;79.02;99744.17;1617419;88;21204;-88
2021/06/03 12:15:32;;;;;;;456.32;69.85;;;;;;;17.78;79.68;99748.66;1592402;90;21356;-88
2021/06/03 12:18:46;;;;;;;660.60;159.48;;;;;;;17.88;78.90;99746.18;1615842;88;21306;-88
2021/06/03 12:21:55;;;;;;;543.67;122.40;;;;;;;17.95;77.68;99750.20;1613881;87;21909;-87
2021/06/03 12:25:04;;;;;;;336.50;122.67;;;;;;;17.80;78.20;99745.97;1613965;87;21222;-88
2021/06/03 12:28:10;;;;;;;681.73;188.47;;;;;;;17.66;78.83;99747.23;1617376;88;21772;-88
2021/06/03 12:31:15;;;;;;;393.25;124.33;;;;;;;17.55;78.66;99753.04;1621217;88;21307;-88
2021/06/03 12:34:28;;;;;;;262.45;47.00;;;;;;;17.47;79.41;99753.36;1655263;86;21348;-86
2021/06/03 12:37:39;;;;;;;220.65;47.27;;;;;;;17.48;80.20;99746.75;1645811;86;21801;-86
2021/06/03 12:40:45;;;;;;;388.93;109.95;;;;;;;17.57;81.19;99751.41;1650370;86;21177;-89
2021/06/03 12:43:51;;;;;;;613.42;127.82;;;;;;;17.66;79.52;99750.54;1643860;86;21885;-86
2021/06/03 12:47:00;;;;;;;1014.30;348.62;;;;;;;17.58;79.13;99764.98;1654743;85;21331;-89
2021/06/03 12:50:24;;;;;;;752.40;178.50;;;;;;;17.46;79.84;99764.13;1646598;85;21367;-88
2021/06/03 12:53:30;;;;;;;673.00;133.15;;;;;;;17.25;79.36;99761.31;1647163;85;21310;-79
2021/06/03 12:56:36;;;;;;;1071.05;256.93;;;;;;;17.08;79.78;99755.59;1644880;87;21876;-79
2021/06/03 12:59:42;;;;;;;484.33;112.57;;;;;;;17.00;80.52;99762.81;1642105;86;21328;-78
2021/06/03 13:02:48;;;;;;;1596.45;567.90;;;;;;;16.94;80.68;99766.52;1650631;86;21346;-79
2021/06/03 13:05:58;;;;;;;683.62;152.17;;;;;;;16.89;79.44;99759.97;1646545;86;21972;-79
2021/06/03 13:09:05;;;;;;;588.33;103.53;;;;;;;16.88;80.96;99763.27;1643893;86;21337;-78
2021/06/03 13:12:22;;;;;;;548.83;102.95;;;;;;;16.89;81.25;99767.74;1648330;86;21238;-78
2021/06/03 13:15:28;;;;;;;275.22;62.78;;;;;;;16.94;80.98;99772.03;1646075;85;21781;-79
2021/06/03 13:18:33;;;;;;;610.37;143.75;;;;;;;17.01;81.68;99773.32;1647503;87;21872;-78
2021/06/03 13:21:39;;;;;;;570.25;95.28;;;;;;;17.03;81.67;99783.08;1648338;87;21843;-78
2021/06/03 13:24:47;;;;;;;728.85;102.32;;;;;;;16.94;84.07;99788.61;1648462;87;21348;-78
2021/06/03 13:27:53;;;;;;;298.90;54.08;;;;;;;16.79;85.47;99786.74;1647174;87;21731;-78
2021/06/03 13:31:06;;;;;;;351.70;71.02;;;;;;;16.65;86.78;99781.87;1645698;86;21317;-78
2021/06/03 13:34:31;;;;;;;440.15;104.32;;;;;;;16.55;88.01;99786.53;1673529;85;21235;-78
2021/06/03 13:37:39;;;;;;;275.30;67.15;;;;;;;16.55;88.57;99803.64;1659026;85;21310;-79
2021/06/03 13:40:45;;;;;;;435.65;93.62;;;;;;;16.51;88.26;99788.59;1617360;87;21332;-79
2021/06/03 13:43:54;;;;;;;398.27;82.08;;;;;;;16.52;87.87;99804.11;1645913;86;21340;-88
2021/06/03 13:47:00;;;;;;;469.73;80.22;;;;;;;16.42;86.84;99810.66;1641728;87;21197;-87
2021/06/03 13:50:39;;;;;;;367.62;83.10;;;;;;;16.39;88.50;99816.66;1640618;86;21237;-80
2021/06/03 13:53:49;;;;;;;256.68;79.00;;;;;;;16.39;88.24;99811.98;1641973;87;21331;-80
2021/06/03 13:56:58;;;;;;;463.93;113.37;;;;;;;16.35;87.86;99818.48;1642198;87;21328;-87
2021/06/03 14:00:04;;;;;;;418.43;131.60;;;;;;;16.23;88.31;99827.70;1642050;87;21477;-88
2021/06/03 14:03:19;;;;;;;877.70;198.80;;;;;;;16.05;87.95;99836.25;1642390;87;22007;-87
2021/06/03 14:06:25;;;;;;;415.55;115.35;;;;;;;15.88;88.83;99836.47;1642398;87;21315;-87
2021/06/03 14:09:36;;;;;;;1013.27;284.70;;;;;;;15.72;90.17;99839.23;1642529;86;21336;-87